Tiempo atmosférico en la estación meteorológica de Yecla, Murcia (640 m.)



Fecha
DESCASC
Temp. máxima en grados centígrados (hora)
DESCASC
Temp. mínima en grados centígrados (hora)
DESCASC
Temp. media en grados centígrados
DESCASC
Racha de viento máxima en m/sg (hora)
DESCASC
Velocidad máxima media en intervalos de 10 minutos(hora)
DESCASC
Precipitaciones diarias en mm
DESCASC
Precipitaciones de 00:00 a 06:00 en mm
DESCASC
Precipitaciones de 06:00 a 12:00 en mm
DESCASC
Precipitaciones de 12:00 a 18:00 en mm
DESCASC
Precipitaciones de 18:00 a 24:00 en mm
DESCASC
23-06-2019 32.4 (16:50) 12.9 (06:00) 22.7 7.78 (12:30) 4.44 (20:00) 0 0 0 0 0
22-06-2019 30.2 (16:10) 16.1 (07:10) 23.2 8.33 (18:30) 5 (18:30) 0 0 0 0 0
21-06-2019 30.3 (17:00) 14.7 (05:00) 22.5 8.61 (18:00) 5.28 (21:30) 0 0 0 0 0
20-06-2019 32.8 (15:20) 17.9 (00:00) 25.3 10.83 (07:10) 7.78 (06:40) 0 0 0 0 0
19-06-2019 33.1 (17:20) 14.6 (00:00) 23.8 10.28 (10:30) 6.39 (09:00) 0 0 0 0 0
18-06-2019 31.5 (16:00) 10.1 (00:00) 20.8 9.17 (17:10) 5.28 (14:50) 0 0 0 0 0
17-06-2019 31.2 (16:30) 9.9 (00:00) 20.6 9.44 (15:50) 5 (18:50) 0 0 0 0 0
16-06-2019 27.1 (14:50) 11.6 (00:00) 19.4 6.39 (08:10) 4.17 (09:00) 0 0 0 0 0
15-06-2019 29.3 (19:40) 14.8 (00:00) 22 15.83 (06:30) 8.61 (03:10) 0 0 0 0 0
14-06-2019 29.7 (17:20) 14.3 (00:00) 22 10.28 (07:50) 5.83 (17:30) 0 0 0 0 0
13-06-2019 23.4 (16:00) 11.9 (00:00) 17.6 10.28 (15:50) 6.67 (17:20) 0 0 0 0 0
12-06-2019 24.2 (16:00) 9 (00:00) 16.6 8.06 (18:20) 5 (20:20) 0 0 0 0 0
11-06-2019 27.7 (15:10) 10.3 (00:00) 19 11.67 (17:10) 7.22 (17:50) 0 0 0 0 0
10-06-2019 29.1 (17:40) 17.2 (00:00) 23.2 13.61 (06:00) 7.5 (06:20) 0 0 0 0 0
09-06-2019 28.7 (18:30) 11.6 (00:00) 20.2 10.83 (13:40) 5.28 (13:50) 0 0 0 0 0
08-06-2019 23.1 (16:20) 12.6 (00:00) 17.9 13.33 (15:30) 8.06 (12:20) 0 0 0 0 0
07-06-2019 27 (17:50) 9.6 (00:00) 18.3 13.33 (09:20) 8.33 (09:30) 0 0 0 0 0
06-06-2019 25.7 (15:20) 10.1 (00:00) 17.9 10 (16:20) 4.72 (19:40) 0 0 0 0 0
05-06-2019 23.7 (17:20) 13.9 (00:00) 18.8 15.83 (13:10) 8.89 (12:00) 0 0 0 0 0
04-06-2019 32.3 (16:20) 11.3 (00:00) 21.8 9.72 (18:40) 5 (18:00) 0 0 0 0 0
03-06-2019 31.6 (16:50) 9.6 (00:00) 20.6 7.5 (18:20) 4.17 (17:30) 0 0 0 0 0
02-06-2019 30.1 (17:20) 8.5 (00:00) 19.3 7.78 (17:30) 4.17 (18:30) 0 0 0 0 0
01-06-2019 28.5 (16:50) 8.5 (00:00) 18.5 7.78 (18:10) 4.17 (18:30) 0 0 0 0 0
31-05-2019 27 (17:00) 7.9 (00:00) 17.5 10 (17:00) 3.89 (18:10) 0 0 0 0 0
30-05-2019 25.6 (16:10) 7.1 (00:00) 16.4 7.78 (17:50) 3.89 (18:30) 0 0 0 0 0
29-05-2019 25.1 (17:30) 9.3 (00:00) 17.2 8.89 (15:00) 4.17 (15:00) 0 0 0 0 0
28-05-2019 29.6 (18:10) 12.6 (00:00) 21.1 12.22 (16:30) 6.11 (19:40) 0 0 0 0 0
27-05-2019 29.5 (17:10) 9 (00:00) 19.3 10 (17:50) 5.83 (20:10) 0 0 0 0 0

Gráficas

Temp. máximas Temp. mínimas Temp. medias Precipitaciones Rachas de viento máximas Velocidades máximas media en intervalos de 10 minutos

Datos horarios

Fecha y hora oficial Temperatura (ºC) Velocidad del viento (km/h) Dirección del viento Racha (km/h) Dirección de racha Precipitación (mm) Presión (hPa) Tendencia (hPa) Humedad (%)
2019-06-25 23:00:00 21.3 15 Nordeste 27 Este 0 945 2.2 74
2019-06-25 22:00:00 22.6 20 Nordeste 32 Nordeste 0 943.8 1.2 68
2019-06-25 21:00:00 25 18 Nordeste 35 Nordeste 0 943.4 0.7 58
2019-06-25 20:00:00 28.4 20 Nordeste 35 Nordeste 0 942.8 0.1 47
2019-06-25 19:00:00 30.2 20 Nordeste 34 Este 0 942.6 -0.2 42
2019-06-25 18:00:00 31.8 17 Este 36 Nordeste 0 942.7 -0.5 35
2019-06-25 17:00:00 33.2 20 Nordeste 33 Nordeste 0 942.7 -1.1 30
2019-06-25 16:00:00 33.9 12 Este 29 Este 0 942.8 -1.3 25
2019-06-25 15:00:00 32.8 8 Este 21 Este 0 943.2 -1 26
2019-06-25 14:00:00 31.2 9 Este 18 Nordeste 0 943.8 -0.2 28
2019-06-25 13:00:00 29.3 8 Este 18 Nordeste 0 944.1 -0.2 32
2019-06-25 12:00:00 27.4 7 Nordeste 16 Nordeste 0 944.2 0.4 36
2019-06-25 11:00:00 25.4 5 Nordeste 13 Nordeste 0 944 0.4 41
2019-06-25 10:00:00 22.9 8 Nordeste 14 Nordeste 0 944.3 1.4 48
2019-06-25 09:00:00 20.8 4 Este 8 Este 0 943.8 1.1 47
2019-06-25 08:00:00 16.3 2 Oeste 10 Sudoeste 0 943.6 0.5 61
2019-06-25 07:00:00 13.1 5 Sudoeste 8 Oeste 0 942.9 -0.3 69
2019-06-25 06:00:00 13.9 0 Calma 8 Oeste 0 942.7 -0.1 65
2019-06-25 05:00:00 14.6 3 Oeste 7 Oeste 0 943.1 -0.4 62
2019-06-25 04:00:00 15.4 4 Sudoeste 12 Sudoeste 0 943.2 -0.3 61
2019-06-25 03:00:00 15.7 6 Oeste 9 Sudoeste 0 942.8 -0.6 59
2019-06-25 02:00:00 16.8 3 Sudoeste 8 Nordeste 0 943.5 0.7 53
2019-06-25 01:00:00 19.6 6 Nordeste 18 Este 0 943.5 1.4 46
2019-06-25 00:00:00 20.7 11 Nordeste 22 Nordeste 0 943.4 2 38
2019-06-24 23:00:00 22.1 10 Nordeste 19 Este 0 942.8 2 33
2019-06-24 22:00:00 23.5 12 Nordeste 26 Nordeste 0 942.1 1.4 34
2019-06-24 21:00:00 25.5 17 Nordeste 29 Nordeste 0 941.4 0.7 33
2019-06-24 20:00:00 28.1 18 Nordeste 32 Nordeste 0 940.8 0.1 31
2019-06-24 19:00:00 29.7 18 Nordeste 31 Nordeste 0 940.7 -0.2 29
2019-06-24 18:00:00 30 17 Nordeste 31 Nordeste 0 940.7 -0.6 30
2019-06-24 17:00:00 31.2 14 Nordeste 30 Este 0 940.7 -0.9 26
2019-06-24 16:00:00 30.7 14 Nordeste 26 Nordeste 0 940.9 -0.9 26
2019-06-24 15:00:00 29.8 10 Nordeste 23 Nordeste 0 941.3 -0.8 27
2019-06-24 14:00:00 29.2 12 Nordeste 25 Nordeste 0 941.6 -0.7 26
2019-06-24 13:00:00 27.9 13 Nordeste 27 Nordeste 0 941.8 -0.7 28
2019-06-24 12:00:00 26.5 13 Nordeste 23 Nordeste 0 942.1 0 30
2019-06-24 11:00:00 25.1 9 Nordeste 19 Nordeste 0 942.3 0.3 34
2019-06-24 10:00:00 22.9 7 Este 14 Este 0 942.5 0.6 41
2019-06-24 09:00:00 20.4 6 Este 10 Este 0 942.1 0.2 49
2019-06-24 08:00:00 15.3 3 Sudoeste 6 Sudoeste 0 942 0.2 63
2019-06-24 07:00:00 12.9 0 Calma 8 Sudoeste 0 941.9 -0.1 68
2019-06-24 06:00:00 13.5 4 Sudoeste 7 Sudoeste 0 941.9 -0.8 65
2019-06-24 05:00:00 14.1 5 Oeste 7 Sudoeste 0 941.8 -1 59
2019-06-24 04:00:00 14.9 5 Sudoeste 10 Oeste 0 942 -1.2 56
2019-06-24 03:00:00 16.2 6 Oeste 15 Oeste 0 942.7 -0.4 50
2019-06-24 02:00:00 17 6 Sudoeste 14 Oeste 0 942.8 -0.1 47
2019-06-24 01:00:00 18 5 Oeste 9 Sudoeste 0 943.2 1.3 45
2019-06-24 00:00:00 19.1 3 Nordeste 9 Oeste 0 943.1 1.9 41
2019-06-23 23:00:00 21.4 6 Oeste 12 Sur 0 942.9 2.6 33
2019-06-23 22:00:00 22.8 4 Sudeste 18 Sur 0 941.9 1.8 30
2019-06-23 21:00:00 25.2 10 Sur 24 Sur 0 941.2 0.7 30
2019-06-23 20:00:00 28.5 16 Sur 24 Sur 0 940.3 -0.6 24
2019-06-23 19:00:00 30.3 10 Sur 23 Sur 0 940.1 -1.3 22
2019-06-23 18:00:00 31.7 9 Sur 24 Sudeste 0 940.5 -1.3 20
2019-06-23 17:00:00 32.2 12 Este 26 Sudeste 0 940.9 -1.1 18
2019-06-23 16:00:00 32.1 14 Sur 28 Sudeste 0 941.4 -0.8 13
2019-06-23 15:00:00 31.5 12 Este 24 Sudeste 0 941.8 -0.8 15
2019-06-23 14:00:00 31.4 13 Sudeste 26 Sudeste 0 942 -0.8 16
2019-06-23 13:00:00 30.5 12 Sudeste 28 Sudeste 0 942.2 -0.7 16
2019-06-23 12:00:00 28.5 9 Sur 18 Sudeste 0 942.6 0.1 21
2019-06-23 11:00:00 27.1 9 Sur 18 Sudeste 0 942.8 0.2 23
2019-06-23 10:00:00 24.7 5 Este 9 Nordeste 0 942.9 0.2 31
2019-06-23 09:00:00 19.6 0 Calma 5 Este 0 942.5 0.2 51
2019-06-23 08:00:00 15 0 Calma 10 Oeste 0 942.6 0.3 64
2019-06-23 07:00:00 13.6 5 Sudoeste 9 Noroeste 0 942.7 0.1 60
2019-06-23 06:00:00 12.9 5 Sudoeste 7 Oeste 0 942.3 -0.6 64
2019-06-23 05:00:00 13.7 4 Oeste 9 Oeste 0 942.3 -1 61
2019-06-23 04:00:00 14.4 8 Sudoeste 10 Oeste 0 942.6 -0.7 60
2019-06-23 03:00:00 16.8 10 Oeste 12 Oeste 0 942.9 -0.5 55
2019-06-23 02:00:00 16.9 5 Oeste 11 Oeste 0 943.3 0.4 63
2019-06-23 01:00:00 17.8 6 Oeste 9 Oeste 0 943.3 1.2 58
2019-06-23 00:00:00 19.9 3 Sur 12 Oeste 0 943.4 1.5 52
2019-06-22 23:00:00 22 3 Noroeste 13 Sudeste 0 942.9 1.2 43
2019-06-22 22:00:00 23.5 5 Sudeste 14 Sur 0 942.1 0.5 41
2019-06-22 21:00:00 24.9 10 Sudoeste 20 Sur 0 941.9 0 42
2019-06-22 20:00:00 27.3 13 Sur 24 Sudeste 0 941.7 -0.6 33
2019-06-22 19:00:00 28.6 17 Sudeste 30 Sudeste 0 941.6 -1 31
2019-06-22 18:00:00 29 15 Sudeste 27 Sudeste 0 941.9 -1.1 31
2019-06-22 17:00:00 29.7 13 Sudeste 27 Sur 0 942.3 -1.3 29
2019-06-22 16:00:00 29.8 11 Sudeste 23 Sur 0 942.6 -1.3 30
2019-06-22 15:00:00 29.2 10 Sudeste 28 Sudeste 0 943 -1.1 31
2019-06-22 14:00:00 28.8 9 Sur 22 Sudeste 0 943.6 -0.5 29
2019-06-22 13:00:00 27.6 8 Sudeste 21 Sudeste 0 943.9 -0.6 34
2019-06-22 12:00:00 26.3 8 Este 16 Sudeste 0 944.1 -0.3 36
2019-06-22 11:00:00 24.2 5 Este 13 Este 0 944.1 -0.2 43
2019-06-22 10:00:00 21.6 7 Este 15 Este 0 944.5 0.6 54
2019-06-22 09:00:00 19.6 10 Nordeste 14 Nordeste 0 944.4 0.6 62
2019-06-22 08:00:00 17.1 4 Nordeste 7 Este 0 944.3 0.6 73
2019-06-22 07:00:00 16.3 5 Este 14 Nordeste 0 943.9 0 72
2019-06-22 06:00:00 16.7 8 Nordeste 13 Nordeste 0 943.8 -0.3 69
2019-06-22 05:00:00 17.5 8 Nordeste 14 Nordeste 0 943.7 -0.8 67
2019-06-22 04:00:00 17.9 8 Nordeste 14 Nordeste 0 943.9 -0.5 65
2019-06-22 03:00:00 18 7 Nordeste 14 Este 0 944.1 -0.2 64
2019-06-22 02:00:00 18.2 7 Nordeste 15 Nordeste 0 944.5 0.9 64
2019-06-22 01:00:00 18.1 9 Nordeste 21 Nordeste 0 944.4 1.8 68
2019-06-22 00:00:00 18.5 15 Nordeste 28 Nordeste 0 944.3 2.6 68
2019-06-21 23:00:00 19.5 16 Nordeste 27 Nordeste 0 943.6 2.6 65
2019-06-21 22:00:00 20.8 15 Nordeste 29 Nordeste 0 942.6 2.1 62
2019-06-21 21:00:00 23.1 12 Este 28 Este 0 941.7 1.4 59
2019-06-21 20:00:00 25.3 12 Sudeste 22 Sudeste 0 941 0.6 52
2019-06-21 19:00:00 27.3 9 Sur 26 Sur 0 940.5 -0.3 45
2019-06-21 18:00:00 28.8 15 Sudeste 31 Sudeste 0 940.3 -0.8 39
2019-06-21 17:00:00 29.8 8 Sudoeste 18 Sudeste 0 940.4 -1 27
2019-06-21 16:00:00 29.2 9 Este 18 Este 0 940.8 -1 30
2019-06-21 15:00:00 27.8 10 Este 21 Este 0 941.1 -0.9 34
2019-06-21 14:00:00 26 14 Este 26 Este 0 941.4 -0.5 41
2019-06-21 13:00:00 26.1 12 Este 21 Este 0 941.8 -0.2 39
2019-06-21 12:00:00 24.5 6 Nordeste 22 Norte 0 942 0 41
2019-06-21 11:00:00 23.6 10 Este 24 Nordeste 0 941.9 0.2 45
2019-06-21 10:00:00 21 11 Nordeste 21 Nordeste 0 942 1 55
2019-06-21 09:00:00 18.3 9 Nordeste 14 Este 0 942 1.1 74
2019-06-21 08:00:00 16.1 9 Nordeste 17 Nordeste 0 941.7 0.8 83
2019-06-21 07:00:00 16.5 7 Norte 13 Norte 0 941 0.3 85
2019-06-21 06:00:00 16.2 3 Nordeste 8 Oeste 0 940.9 0.1 87
2019-06-21 05:00:00 14.7 4 Oeste 8 Sudoeste 0 940.9 0.1 85
2019-06-21 04:00:00 15.7 2 Sudoeste 13 Nordeste 0 940.7 -0.2 84
2019-06-21 03:00:00 17.2 9 Nordeste 13 Nordeste 0 940.8 0.2 83
2019-06-21 02:00:00 16.8 3 Oeste 6 Sudoeste 0 940.8 0.7 68
2019-06-21 01:00:00 18 4 Sudoeste 9 Nordeste 0 940.9 1.3 63
2019-06-21 00:00:00 20.5 8 Nordeste 12 Nordeste 0 940.6 1.5 61
2019-06-20 23:00:00 21.6 3 Nordeste 9 Este 0 940.1 1.2 47
2019-06-20 22:00:00 23.1 5 Este 13 Sur 0 939.6 1.2 45
2019-06-20 21:00:00 25.3 7 Sudeste 16 Sudeste 0 939.1 0.7 43
2019-06-20 20:00:00 27.2 9 Sudeste 25 Sudeste 0 938.9 0.3 38
2019-06-20 19:00:00 28.2 13 Sudeste 25 Sudeste 0 938.4 -0.5 34
2019-06-20 18:00:00 29.9 14 Sudeste 31 Este 0 938.4 -0.8 32
2019-06-20 17:00:00 29.4 19 Este 35 Nordeste 0 938.6 -1.3 31
2019-06-20 16:00:00 30.3 19 Este -- -- 0 938.9 -1.5 31
2019-06-20 15:00:00 31.8 6 Este 24 Sudoeste 0 939.2 -1.2 19
2019-06-20 14:00:00 30.9 6 Sudoeste 27 Sudeste 0 939.9 -0.6 21
2019-06-20 13:00:00 29.9 11 Sudeste 19 Sudeste 0 940.4 -0.1 22
2019-06-20 12:00:00 28.7 11 Nordeste 20 Nordeste 0 940.4 -0.1 26
2019-06-20 11:00:00 26.8 9 Norte 28 Norte 0 940.5 0.1 29
2019-06-20 10:00:00 25 14 Norte 30 Norte 0 940.5 0.5 32
2019-06-20 09:00:00 23.9 9 Norte 23 Norte 0 940.5 0.3 34
2019-06-20 08:00:00 21.5 5 Nordeste 39 Noroeste 0 940.4 0.1 41
2019-06-20 07:00:00 21.9 23 Noroeste 39 Noroeste 0 940 -0.4 38
2019-06-20 06:00:00 18.6 5 Sur 18 Sur 0 940.2 -0.4 46
2019-06-20 05:00:00 19.4 8 Sudeste 36 Noroeste 0 940.3 -0.6 42
2019-06-20 04:00:00 22.7 23 Noroeste 36 Noroeste 0 940.4 -0.6 34
2019-06-20 03:00:00 23.2 18 Noroeste 34 Noroeste 0 940.6 -0.4 31
2019-06-20 02:00:00 18.7 5 Nordeste 11 Sudeste 0 940.9 0.2 47
2019-06-20 01:00:00 18.8 5 Sudeste 12 Sudeste 0 941 0.7 46
2019-06-20 00:00:00 21.1 12 Oeste 15 Oeste 0 941 1 40
2019-06-19 23:00:00 22.7 3 Este 15 Oeste 0 940.7 0.9 36
2019-06-19 22:00:00 24.8 9 Sudoeste 18 Sur 0 940.3 0.5 30
2019-06-19 21:00:00 27.6 10 Sudoeste 27 Sur 0 940 0.2 26
2019-06-19 20:00:00 29.5 15 Sur 30 Sur 0 939.8 -0.5 24
2019-06-19 19:00:00 30.4 14 Sur 32 Sudeste 0 939.8 -1.1 24
2019-06-19 18:00:00 32.9 -- -- -- -- 0 939.8 -1.6 13
2019-06-19 17:00:00 32.5 8 Oeste 23 Sudoeste 0 940.3 -1.7 14
2019-06-19 16:00:00 31.9 15 Sudoeste 27 Sudoeste 0 940.9 -1.5 15
2019-06-19 15:00:00 31.1 9 Sudoeste 21 Oeste 0 941.4 -0.9 16
2019-06-19 14:00:00 29.5 8 Oeste 18 Noroeste 0 942 -0.4 22
2019-06-19 13:00:00 28.4 8 Noroeste 28 Nordeste 0 942.4 -0.1 25
2019-06-19 12:00:00 26.1 14 Nordeste 35 Nordeste 0 942.3 -0.1 31
2019-06-19 11:00:00 24.5 15 Norte 37 Norte 0 942.4 0.2 37
2019-06-19 10:00:00 23 18 Noroeste 36 Noroeste 0 942.5 0.5 42
2019-06-19 09:00:00 21.6 23 Noroeste 36 Norte 0 942.4 0.5 44
2019-06-19 08:00:00 20.3 8 Oeste 28 Oeste 0 942.2 0.7 43
2019-06-19 07:00:00 15.5 5 Este 21 Noroeste 0 942 0.5 60
2019-06-19 06:00:00 14.8 3 Sudeste 8 Oeste 0 941.9 0.1 63
2019-06-19 05:00:00 14.8 4 Oeste 6 Oeste 0 941.5 -0.6 63
2019-06-19 04:00:00 14.8 4 Sudoeste 6 Sudoeste 0 941.5 -0.8 62
2019-06-19 03:00:00 15.1 3 Sudoeste 6 Oeste 0 941.8 -0.5 59
2019-06-19 02:00:00 16.8 5 Sudoeste 12 Oeste 0 942.1 0.3 53
2019-06-19 01:00:00 18.1 4 Sudoeste 9 Sudoeste 0 942.3 1 48
2019-06-19 00:00:00 19.4 7 Oeste 14 Oeste 0 942.3 1.2 42
2019-06-18 23:00:00 21.5 10 Oeste 17 Oeste 0 941.8 0.9 35
2019-06-18 22:00:00 22.8 5 Sudoeste 12 Sur 0 941.3 0.5 33
2019-06-18 21:00:00 25.6 8 Sur 21 Sur 0 941.1 0.2 28
2019-06-18 20:00:00 27.7 13 Sur 27 Sur 0 940.9 -0.2 26
2019-06-18 19:00:00 28.9 13 Sur 31 Sur 0 940.8 -0.6 24
2019-06-18 18:00:00 30 15 Sur 33 Sudoeste 0 940.9 -1.1 21
2019-06-18 17:00:00 30 13 Sur 31 Sudeste 0 941.1 -1.3 21
2019-06-18 16:00:00 31.5 12 Sur 28 Sudeste 0 941.4 -1.2 18
2019-06-18 15:00:00 30.5 19 Sudoeste -- -- 0 942 -0.8 14
2019-06-18 14:00:00 30 16 Sur 31 Sudoeste 0 942.4 -0.5 14
2019-06-18 13:00:00 29.1 13 Sur 23 Sudoeste 0 942.6 -0.6 15
2019-06-18 12:00:00 27.8 15 Sur 23 Sudeste 0 942.8 -0.5 16
2019-06-18 11:00:00 26.3 4 Sudoeste 11 Sur 0 942.9 -0.2 21
2019-06-18 10:00:00 23 3 Nordeste 9 Este 0 943.2 0.4 28
2019-06-18 09:00:00 20.5 2 Nordeste 6 Sudoeste 0 943.3 0.5 30
2019-06-18 08:00:00 14.1 3 Sudoeste 6 Sudoeste 0 943.1 0.3 49
2019-06-18 07:00:00 10.4 4 Sudoeste 6 Sudoeste 0 942.8 -0.4 60
2019-06-18 06:00:00 10.5 3 Oeste 7 Oeste 0 942.8 -0.7 61
2019-06-18 05:00:00 11.2 4 Oeste 6 Oeste 0 942.8 -1 60
2019-06-18 04:00:00 12.8 4 Sudoeste 14 Sudoeste 0 943.2 -0.9 53
2019-06-18 03:00:00 15.9 13 Oeste 17 Oeste 0 943.5 -0.7 42
2019-06-18 02:00:00 15.1 9 Oeste 16 Oeste 0 943.8 -0.1 48
2019-06-18 01:00:00 15.1 7 Oeste 13 Oeste 0 944.1 1.1 51
2019-06-18 00:00:00 17.3 10 Oeste 13 Oeste 0 944.2 1.6 49
2019-06-17 23:00:00 19.3 3 Sur 9 Sur 0 943.9 1.5 42
2019-06-17 22:00:00 21.5 9 Sudoeste 23 Sur 0 943 0.7 37
2019-06-17 21:00:00 24.6 12 Sur 24 Sur 0 942.6 0.2 31
2019-06-17 20:00:00 27.5 14 Sur 27 Sur 0 942.4 -0.2 22
2019-06-17 19:00:00 28.9 16 Sur 32 Sudeste 0 942.3 -0.7 20
2019-06-17 18:00:00 29.5 18 Sur 33 Sur 0 942.4 -1.1 21
2019-06-17 17:00:00 30.7 -- -- -- -- 0 942.6 -1.4 16
2019-06-17 16:00:00 30.9 12 Sur -- -- 0 943 -1.6 15
2019-06-17 15:00:00 30.5 13 Sudoeste 22 Sudeste 0 943.5 -1.4 15
2019-06-17 14:00:00 29.4 8 Sudeste 22 Sudeste 0 944 -1.1 17
2019-06-17 13:00:00 28.1 10 Sur 20 Sur 0 944.6 -0.8 21
2019-06-17 12:00:00 27.2 8 Sudeste 19 Este 0 944.9 -0.4 23
2019-06-17 11:00:00 24.8 6 Sur 18 Sudeste 0 945.1 0 28
2019-06-17 10:00:00 21.4 4 Este 9 Este 0 945.4 0.4 39
2019-06-17 09:00:00 17.6 2 Este 6 Este 0 945.3 0.4 56
2019-06-17 08:00:00 12.8 3 Sudoeste 6 Este 0 945.1 0.1 70
2019-06-17 07:00:00 10.4 3 Sudeste 8 Oeste 0 945 -0.3 73
2019-06-17 06:00:00 11.5 4 Oeste 14 Oeste 0 944.9 -0.7 68
2019-06-17 05:00:00 11.9 9 Oeste 13 Oeste 0 945 -0.8 77
2019-06-17 04:00:00 13.7 2 Sudeste 17 Oeste 0 945.3 -0.7 74
2019-06-17 03:00:00 14.2 8 Oeste 13 Oeste 0 945.6 -0.4 75
2019-06-17 02:00:00 14.6 8 Sudoeste 15 Oeste 0 945.8 -0.1 72
2019-06-17 01:00:00 15.5 8 Sudoeste 15 Oeste 0 946 0.6 70
2019-06-17 00:00:00 17.2 9 Sudoeste 13 Oeste 0 946 1.1 66
2019-06-16 23:00:00 19 4 Sur 17 Sudoeste 0 945.9 0.7 60
2019-06-16 22:00:00 20.3 11 Sudoeste 18 Sudoeste 0 945.4 0.3 54
2019-06-16 21:00:00 21.4 6 Sudoeste 16 Sudoeste 0 944.9 0.1 48
2019-06-16 20:00:00 22.1 11 Sudoeste 17 Sudoeste 0 945.2 -0.2 47
2019-06-16 19:00:00 23.4 10 Sur 21 Sur 0 945.1 -0.3 42
2019-06-16 18:00:00 24.5 8 Sudeste 18 Sudeste 0 944.8 -1.1 34
2019-06-16 17:00:00 24.9 10 Sudeste 20 Sudeste 0 945.4 -1.2 33
2019-06-16 16:00:00 26.4 11 Sur 19 Sudeste 0 945.4 -1.6 29
2019-06-16 15:00:00 26.7 12 Sudeste 23 Este 0 945.9 -1.1 23
2019-06-16 14:00:00 25.9 9 Este 22 Este 0 946.6 -0.7 31
2019-06-16 13:00:00 23.9 9 Este 23 Nordeste 0 947 -0.1 34
2019-06-16 12:00:00 22.1 6 Este 18 Nordeste 0 947 0 40
2019-06-16 11:00:00 20.1 9 Nordeste 19 Nordeste 0 947.3 0.8 53
2019-06-16 10:00:00 18.5 11 Nordeste 20 Nordeste 0 947.1 1.1 59
2019-06-16 09:00:00 17 15 Nordeste 23 Nordeste 0 947 1.4 66
2019-06-16 08:00:00 14.8 12 Nordeste 22 Nordeste 0 946.5 1 79
2019-06-16 07:00:00 14.1 10 Nordeste 21 Nordeste 0 946 0 75
2019-06-16 06:00:00 13.9 11 Este 19 Nordeste 0 945.6 -0.5 70
2019-06-16 05:00:00 11.8 5 Sudoeste 10 Sudoeste 0 945.5 -0.7 64
2019-06-16 04:00:00 12.1 2 Oeste 6 Sudoeste 0 946 -0.3 62
2019-06-16 03:00:00 14 4 Oeste 12 Sudoeste 0 946.1 -0.1 56
2019-06-16 02:00:00 14.7 4 Oeste 13 Oeste 0 946.2 0.7 53
2019-06-16 01:00:00 16.4 12 Oeste 15 Sudoeste 0 946.3 1.8 48
2019-06-16 00:00:00 18.1 6 Nordeste 10 Nordeste 0 946.2 2.2 42
2019-06-15 23:00:00 19.6 5 Oeste 15 Oeste 0 945.5 2.1 38
2019-06-15 22:00:00 22.3 9 Oeste 19 Sur 0 944.5 1.5 32
2019-06-15 21:00:00 24.2 13 Sur 26 Sur 0 944 0.7 29
2019-06-15 20:00:00 28.6 5 Sur 15 Oeste 0 943.4 -0.5 18
2019-06-15 19:00:00 28.6 5 Sur 18 Norte 0 943 -1.3 16
2019-06-15 18:00:00 28.7 7 Norte 23 Sudoeste 0 943.3 -1.4 15
2019-06-15 17:00:00 28.8 8 Oeste 27 Noroeste 0 943.9 -1.2 15
2019-06-15 16:00:00 27.3 8 Oeste 23 Oeste 0 944.3 -1.2 15
2019-06-15 15:00:00 26.5 13 Sudoeste 27 Oeste 0 944.7 -1 18
2019-06-15 14:00:00 25.3 7 Sur -- -- 0 945.1 -0.8 20
2019-06-15 13:00:00 24 14 Oeste 32 Oeste 0 945.5 -0.3 24
2019-06-15 12:00:00 21.5 6 Oeste 29 Sudoeste 0 945.7 0.6 28
2019-06-15 11:00:00 19.9 5 Oeste -- -- 0 945.9 1.4 31
2019-06-15 10:00:00 18.2 10 Norte 29 Norte 0 945.8 1.7 35
2019-06-15 09:00:00 16.6 9 Sudeste 38 Noroeste 0 945.1 1.6 39
2019-06-15 08:00:00 14.9 10 Sudoeste 26 Sudoeste 0 944.5 1.3 42
2019-06-15 07:00:00 15.3 10 Oeste 57 Noroeste 0 944.1 0.9 41
2019-06-15 06:00:00 16.2 22 Noroeste 49 Noroeste 0 943.5 0.3 38
2019-06-15 05:00:00 16.9 21 Noroeste 44 Noroeste 0 943.2 0.3 34
2019-06-15 04:00:00 17.4 23 Noroeste 50 Noroeste 0 943.2 0.4 33
2019-06-15 03:00:00 18.2 27 Noroeste 50 Noroeste 0 943.2 0.8 32
2019-06-15 02:00:00 19.7 25 Noroeste 56 Oeste 0 942.9 1.3 27
2019-06-15 01:00:00 21.6 22 Noroeste 38 Noroeste 0 942.8 1.9 22
2019-06-15 00:00:00 21.9 11 Oeste 24 Oeste 0 942.4 2.3 27
2019-06-14 23:00:00 23.2 12 Noroeste 19 Norte 0 941.6 2.5 23
2019-06-14 22:00:00 24.2 8 Sudoeste 21 Sudeste 0 940.9 2.2 29
2019-06-14 21:00:00 25.5 8 Sur 23 Sudoeste 0 940.1 1.1 37
2019-06-14 20:00:00 28.4 9 Oeste 26 Sudoeste 0 939.1 -0.1 24
2019-06-14 19:00:00 29.3 8 Oeste 26 Sur 0 938.7 -0.8 23
2019-06-14 18:00:00 29 12 Sudoeste -- -- 0 939 -0.7 24
2019-06-14 17:00:00 29.2 10 Oeste 31 Sudoeste 0 939.2 -0.6 21
2019-06-14 16:00:00 28.5 11 Sudoeste -- -- 0 939.5 -0.4 22
2019-06-14 15:00:00 27.6 16 Oeste -- -- 0 939.7 -0.2 25
2019-06-14 14:00:00 26.9 9 Sur 27 Oeste 0 939.8 0 27
2019-06-14 13:00:00 25.8 10 Sur 31 Oeste 0 939.9 0.3 29
2019-06-14 12:00:00 24.1 15 Oeste 31 Oeste 0 939.9 0.5 31
2019-06-14 11:00:00 22.8 17 Oeste 31 Oeste 0 939.8 1.4 30
2019-06-14 10:00:00 19.1 11 Oeste 29 Oeste 0 939.6 1.1 50
2019-06-14 09:00:00 17.3 7 Sudoeste 22 Sudoeste 0 939.4 1.8 71
2019-06-14 08:00:00 18.2 10 Norte 37 Noroeste 0 938.4 2.2 57
2019-06-14 07:00:00 15.5 8 Sudoeste 25 Oeste 0 938.5 0.1 69
2019-06-14 06:00:00 14.4 8 Sudoeste 19 Sur 0 937.6 -0.2 70
2019-06-14 05:00:00 15.7 5 Oeste 21 Este 0 936.2 -2.2 62
2019-06-14 04:00:00 15.4 11 Sur 19 Oeste 0 938.4 -0.6 64
2019-06-14 03:00:00 15.6 4 Sur 12 Norte 0 937.8 -1.8 62
2019-06-14 02:00:00 15.5 8 Norte 20 Norte 0 938.4 -1.1 64
2019-06-14 01:00:00 15.2 14 Nordeste 23 Nordeste 0 939 1 67
2019-06-14 00:00:00 15.3 16 Nordeste 25 Este 0 939.6 2 71
2019-06-13 23:00:00 16 12 Este 30 Nordeste 0 939.5 2 69
2019-06-13 22:00:00 16.9 19 Nordeste 32 Este 0 938 0.8 65
2019-06-13 21:00:00 18.4 19 Nordeste 32 Nordeste 0 937.6 0.2 58
2019-06-13 20:00:00 20.5 21 Nordeste 33 Nordeste 0 937.5 -0.1 53
2019-06-13 19:00:00 21.6 21 Nordeste 34 Nordeste 0 937.2 -0.8 49
2019-06-13 18:00:00 22.3 24 Nordeste 37 Nordeste 0 937.4 -0.8 48
2019-06-13 17:00:00 22.7 23 Nordeste 36 Este 0 937.6 -1.2 48
2019-06-13 16:00:00 23 22 Nordeste 37 Nordeste 0 938 -1.2 48
2019-06-13 15:00:00 22.9 15 Nordeste 36 Nordeste 0 938.2 -1.5 49
2019-06-13 14:00:00 22.6 13 Nordeste 30 Este 0 938.8 -1.1 49
2019-06-13 13:00:00 21.4 15 Nordeste 27 Nordeste 0 939.2 -1.3 53
2019-06-13 12:00:00 19.5 14 Nordeste 27 Este 0 939.7 -0.3 60
2019-06-13 11:00:00 18.7 15 Nordeste 24 Nordeste 0 939.9 -0.1 63
2019-06-13 10:00:00 16 13 Nordeste 19 Nordeste 0 940.5 0.7 77
2019-06-13 09:00:00 15.1 9 Nordeste 12 Nordeste 0 940 0.7 82
2019-06-13 08:00:00 14.3 6 Nordeste 9 Nordeste 0 940 0.4 84
2019-06-13 07:00:00 13.6 3 Nordeste 12 Nordeste 0 939.8 0 84
2019-06-13 06:00:00 14.1 8 Nordeste 12 Nordeste 0 939.3 -1.1 82
2019-06-13 05:00:00 14.2 4 Nordeste 8 Este 0 939.6 -1.3 82
2019-06-13 04:00:00 13.4 0 Calma 6 Oeste 0 939.8 -1.2 82
2019-06-13 03:00:00 12.4 4 Oeste 9 Oeste 0 940.4 -0.5 84
2019-06-13 02:00:00 12.4 3 Sudoeste 5 Sudeste 0 940.9 0.4 80
2019-06-13 01:00:00 13.4 2 Sudoeste 9 Sudoeste 0 941 1 79
2019-06-13 00:00:00 13.5 5 Sudoeste 9 Sudoeste 0 940.9 1.3 74
2019-06-12 23:00:00 15.1 4 Este 10 Sur 0 940.5 1.3 68
2019-06-12 22:00:00 16.1 6 Sur 22 Sur 0 940 1 66
2019-06-12 21:00:00 17.8 12 Sur 29 Sudeste 0 939.6 0.3 59
2019-06-12 20:00:00 20.2 15 Sudeste 27 Sudeste 0 939.2 -0.1 46
2019-06-12 19:00:00 22 15 Sudeste 29 Sur 0 939 -0.7 37
2019-06-12 18:00:00 22.8 14 Sur -- -- 0 939.3 -1.1 34
2019-06-12 17:00:00 23.9 14 Sur 28 Sur 0 939.3 -1.6 31
2019-06-12 16:00:00 23.9 14 Sudeste 24 Sudeste 0 939.7 -1.6 30
2019-06-12 15:00:00 22.3 13 Sudeste 27 Sudeste 0 940.4 -1.4 32
2019-06-12 14:00:00 22.4 11 Sur 28 Sudoeste 0 940.9 -1 33
2019-06-12 13:00:00 20.6 10 Sur 26 Sudeste 0 941.3 -0.8 33
2019-06-12 12:00:00 19.5 8 Sudeste 19 Sudeste 0 941.8 -0.3 36
2019-06-12 11:00:00 17.7 4 Nordeste 14 Nordeste 0 941.9 0.3 47
2019-06-12 10:00:00 15.8 6 Nordeste 12 Nordeste 0 942.1 0.7 54
2019-06-12 09:00:00 13.7 5 Este 9 Nordeste 0 942.1 1.3 64
2019-06-12 08:00:00 10.7 3 Sudoeste 4 Sudoeste 0 941.6 1 82
2019-06-12 07:00:00 9.5 2 Sudoeste 10 Nordeste 0 941.4 1 81
2019-06-12 06:00:00 10.5 8 Nordeste 13 Nordeste 0 940.8 -0.1 81
2019-06-12 05:00:00 9.4 0 Calma 11 Sudeste 0 940.6 -0.4 84
2019-06-12 04:00:00 9.2 3 Este 10 Nordeste 0 940.4 -0.9 82
2019-06-12 03:00:00 9.2 2 Noroeste 7 Sudeste 0 940.9 -0.5 81
2019-06-12 02:00:00 11.1 6 Nordeste 12 Nordeste 0 941 -0.1 77
2019-06-12 01:00:00 11.9 11 Nordeste 21 Nordeste 0 941.3 0.9 74
2019-06-12 00:00:00 12.5 9 Nordeste 19 Nordeste 0 941.4 1.4 74
2019-06-11 23:00:00 12.7 12 Nordeste 24 Nordeste 0 941.1 1.7 77
2019-06-11 22:00:00 13 13 Nordeste 28 Nordeste 0 940.4 2.5 79
2019-06-11 21:00:00 13.3 23 Nordeste 33 Nordeste 0 940 2.7 77
2019-06-11 20:00:00 14 21 Nordeste 37 Nordeste 0 939.4 3.2 76
2019-06-11 19:00:00 16.1 23 Nordeste 40 Nordeste 0 937.9 2.2 67
2019-06-11 18:00:00 18.2 20 Nordeste 42 Nordeste 0 937.3 1.8 61
2019-06-11 17:00:00 21.4 22 Nordeste 37 Este 0 936.2 0.5 51
2019-06-11 16:00:00 23.8 21 Nordeste 32 Oeste 0 935.7 -0.5 36
2019-06-11 15:00:00 27.2 15 Oeste 34 Oeste 0 935.5 -1.1 17
2019-06-11 14:00:00 26.7 15 Sudoeste 33 Oeste 0 935.7 -1.2 17
2019-06-11 13:00:00 25.8 13 Oeste 27 Oeste 0 936.2 -1.1 18
2019-06-11 12:00:00 24.4 7 Nordeste 26 Sudeste 0 936.6 -0.8 24
2019-06-11 11:00:00 22.9 10 Sudeste 17 Sudeste 0 936.9 -0.6 31
2019-06-11 10:00:00 21.3 7 Este 12 Este 0 937.3 0 32
2019-06-11 09:00:00 17.9 4 Este 7 Este 0 937.4 0.1 49
2019-06-11 08:00:00 13 3 Nordeste 9 Oeste 0 937.5 -0.3 67
2019-06-11 07:00:00 10.4 7 Oeste 9 Sudoeste 0 937.3 -1 73
2019-06-11 06:00:00 11 5 Sudoeste 10 Sudoeste 0 937.3 -1.6 72
2019-06-11 05:00:00 11.9 0 Calma 10 Oeste 0 937.8 -1.5 66
2019-06-11 04:00:00 11.9 5 Oeste 9 Sudoeste 0 938.3 -1.5 67
2019-06-11 03:00:00 14.2 0 Calma 15 Oeste 0 938.9 -1.4 57
2019-06-11 02:00:00 14.5 6 Sudoeste 13 Oeste 0 939.3 -0.9 56
2019-06-11 01:00:00 16.4 9 Sudoeste 14 Sudoeste 0 939.8 0.1 51
2019-06-11 00:00:00 17.5 3 Sudoeste 11 Sudoeste 0 940.3 1.2 50
2019-06-10 23:00:00 18.8 9 Sudoeste 17 Sudoeste 0 940.2 1.4 49
2019-06-10 22:00:00 20.6 10 Sudoeste 19 Sur 0 939.7 1.1 47
2019-06-10 21:00:00 22.7 15 Sudoeste 26 Sudoeste 0 939.1 0.3 40
2019-06-10 20:00:00 24.9 15 Sur 33 Sur 0 938.8 -0.6 34
2019-06-10 19:00:00 26.3 19 Sur 35 Sudoeste 0 938.6 -1.5 29
2019-06-10 18:00:00 28.6 14 Noroeste 29 Oeste 0 938.8 -1.8 14
2019-06-10 17:00:00 28.5 10 Noroeste -- -- 0 939.4 -1.8 14
2019-06-10 16:00:00 28.1 16 Oeste -- -- 0 940.1 -1.4 15
2019-06-10 15:00:00 27.2 18 Sudoeste 35 Oeste 0 940.6 -1.2 16
2019-06-10 14:00:00 26.6 11 Noroeste 39 Oeste 0 941.2 -0.6 18
2019-06-10 13:00:00 25.7 15 Oeste -- -- 0 941.5 -0.6 18
2019-06-10 12:00:00 24.6 13 Oeste 35 Nordeste 0 941.8 -0.2 21
2019-06-10 11:00:00 23.6 9 Nordeste 26 Nordeste 0 941.8 0.4 24
2019-06-10 10:00:00 21.9 7 Oeste 32 Noroeste 0 942.1 0.8 27
2019-06-10 09:00:00 19.4 13 Oeste 40 Oeste 0 942 0.8 31
2019-06-10 08:00:00 18.4 20 Noroeste 40 Oeste 0 941.4 0.1 32
2019-06-10 07:00:00 18.3 20 Oeste 46 Oeste 0 941.3 -0.2 31
2019-06-10 06:00:00 19.1 26 Oeste 49 Oeste 0 941.2 -0.5 29
2019-06-10 05:00:00 19.8 23 Oeste 45 Oeste 0 941.3 -0.8 26
2019-06-10 04:00:00 20.5 22 Oeste 45 Oeste 0 941.5 -0.8 23
2019-06-10 03:00:00 20.9 26 Oeste 42 Oeste 0 941.7 -0.6 21
2019-06-10 02:00:00 21.5 21 Oeste 34 Oeste 0 942.1 0.1 23
2019-06-10 01:00:00 18.5 11 Oeste 16 Oeste 0 942.3 0.9 57
2019-06-10 00:00:00 18.5 3 Sudoeste 13 Oeste 0 942.3 1.5 60
2019-06-09 23:00:00 20.4 10 Sudoeste 16 Sudoeste 0 942 1.7 54
2019-06-09 22:00:00 21.9 9 Sudoeste 23 Sur 0 941.4 1 48
2019-06-09 21:00:00 24.2 14 Sur 24 Sur 0 940.8 -0.1 40
2019-06-09 20:00:00 28 10 Sudoeste 20 Sudoeste 0 940.3 -1.2 21
2019-06-09 19:00:00 28.3 12 Sudoeste 26 Sudoeste 0 940.4 -1.6 20
2019-06-09 18:00:00 28.3 9 Sudoeste 20 Oeste 0 940.9 -1.5 22
2019-06-09 17:00:00 26.9 12 Oeste 23 Oeste 0 941.5 -1.6 22
2019-06-09 16:00:00 27.3 12 Sudoeste 23 Nordeste 0 942 -1.2 21
2019-06-09 15:00:00 25.8 9 Noroeste 24 Norte 0 942.4 -1.5 23
2019-06-09 14:00:00 25.8 15 Oeste 39 Oeste 0 943.1 -1.1 23
2019-06-09 13:00:00 25.1 7 Norte 18 Oeste 0 943.2 -1 28
2019-06-09 12:00:00 21.7 4 Este 13 Nordeste 0 943.9 -0.1 42
2019-06-09 11:00:00 18.3 4 Este 8 Nordeste 0 944.2 0.9 51
2019-06-09 10:00:00 15.9 2 Sur 5 Noroeste 0 944.2 0.1 59
2019-06-09 09:00:00 14.2 3 Sudeste 10 Sudeste 0 944 -0.3 61
2019-06-09 08:00:00 13.5 8 Este 13 Este 0 943.3 -1.2 68
2019-06-09 07:00:00 12.8 2 Sudoeste 10 Noroeste 0 944.1 -0.7 71
2019-06-09 06:00:00 12.9 6 Sur 19 Este 0 944.3 -1.5 74
2019-06-09 05:00:00 11.8 2 Sudoeste 6 Sudoeste 0 944.5 -1.9 79
2019-06-09 04:00:00 12.3 4 Sudoeste 10 Oeste 0 944.8 -1.6 81
2019-06-09 03:00:00 12.6 3 Sudoeste 7 Oeste 0 945.8 -0.7 83
2019-06-09 02:00:00 13.4 3 Nordeste 10 Nordeste 0 946.4 -0.1 81
2019-06-09 01:00:00 14.2 4 Nordeste 17 Este 0 946.4 0.5 78
2019-06-09 00:00:00 14.7 12 Nordeste 27 Nordeste 0 946.5 0.3 76
2019-06-08 23:00:00 15.4 13 Este 26 Este 0 946.5 0.4 71
2019-06-08 22:00:00 16.3 13 Nordeste 28 Nordeste 0 945.9 0 67
2019-06-08 21:00:00 17.6 20 Nordeste 32 Nordeste 0 946.2 0.1 62
2019-06-08 20:00:00 19.4 22 Nordeste 35 Nordeste 0 946.1 -0.1 56
2019-06-08 19:00:00 20.4 22 Nordeste 35 Este 0 945.9 -0.8 52
2019-06-08 18:00:00 21.4 24 Nordeste 37 Nordeste 0 946.1 -1.2 49
2019-06-08 17:00:00 22 22 Nordeste 40 Nordeste 0 946.2 -1.6 47
2019-06-08 16:00:00 22.5 24 Nordeste 48 Nordeste 0 946.7 -1.3 45
2019-06-08 15:00:00 22.2 20 Nordeste 41 Nordeste 0 947.3 -0.8 46
2019-06-08 14:00:00 21.5 25 Nordeste 41 Nordeste 0 947.8 0.1 50
2019-06-08 13:00:00 21 26 Nordeste 42 Nordeste 0 948 0.1 53
2019-06-08 12:00:00 20.4 24 Nordeste 40 Nordeste 0 948.1 0.4 55
2019-06-08 11:00:00 19.5 24 Nordeste 38 Nordeste 0 947.7 0.4 60
2019-06-08 10:00:00 17.3 24 Nordeste 38 Nordeste 0 947.9 1.1 71
2019-06-08 09:00:00 16.1 21 Nordeste 34 Nordeste 0 947.7 1.3 78
2019-06-08 08:00:00 15 14 Nordeste 24 Este 0 947.3 1 83
2019-06-08 07:00:00 13.7 9 Nordeste 17 Norte 0 946.8 0.5 85
2019-06-08 06:00:00 14.2 8 Nordeste 14 Nordeste 0 946.4 0 81
2019-06-08 05:00:00 14.7 11 Nordeste 21 Norte 0 946.3 0.4 67
2019-06-08 04:00:00 15.4 13 Nordeste 17 Nordeste 0 946.3 0.2 62
2019-06-08 03:00:00 12.7 3 Nordeste 11 Oeste 0 946.4 0.5 68
2019-06-08 02:00:00 13.6 5 Oeste 9 Sudoeste 0 945.9 0.6 65
2019-06-08 01:00:00 15.1 7 Oeste 9 Sudoeste 0 946.1 1.8 58
2019-06-08 00:00:00 18.3 3 Nordeste 14 Norte 0 945.9 2.4 48
2019-06-07 23:00:00 20.7 13 Norte 21 Norte 0 945.3 2.7 35
2019-06-07 22:00:00 22 6 Norte 18 Norte 0 944.3 2.1 25
2019-06-07 21:00:00 23.5 13 Oeste 23 Norte 0 943.5 1.4 26
2019-06-07 20:00:00 26 13 Nordeste 28 Norte 0 942.6 0.3 22
2019-06-07 19:00:00 26.4 13 Norte 26 Norte 0 942.2 -0.2 22
2019-06-07 18:00:00 26.7 6 Sudeste 24 Nordeste 0 942.1 -0.3 24
2019-06-07 17:00:00 25.8 5 Nordeste 28 Norte 0 942.3 -0.3 25
2019-06-07 16:00:00 26.4 10 Noroeste 22 Oeste 0 942.4 0 25
2019-06-07 15:00:00 25.3 9 Oeste 31 Oeste 0 942.4 0.5 28
2019-06-07 14:00:00 24.1 11 Oeste 34 Oeste 0 942.6 1.1 32
2019-06-07 13:00:00 22.4 12 Oeste -- -- 0 942.4 1.6 37
2019-06-07 12:00:00 22.5 18 Oeste 31 Oeste 0 941.9 1.7 37
2019-06-07 11:00:00 21 21 Oeste 45 Oeste 0 941.5 1.4 41
2019-06-07 10:00:00 19.1 19 Oeste 48 Noroeste 0 940.8 1.2 44
2019-06-07 09:00:00 18.3 25 Oeste 43 Noroeste 0 940.2 1.2 43
2019-06-07 08:00:00 16.1 17 Oeste 29 Oeste 0 940.1 1.4 45
2019-06-07 07:00:00 10.3 3 Sudeste 8 Oeste 0 939.6 0.7 80
2019-06-07 06:00:00 10.1 2 Noroeste 5 Sudeste 0 939 0.4 79
2019-06-07 05:00:00 11.5 2 Sudoeste 12 Oeste 0 938.7 0 73
2019-06-07 04:00:00 11.3 5 Sudoeste 12 Oeste 0 938.9 0.1 73
2019-06-07 03:00:00 12.5 9 Sudoeste 12 Oeste 0 938.6 -0.3 72
2019-06-07 02:00:00 13.6 10 Sudoeste 16 Oeste 0 938.7 0 69
2019-06-07 01:00:00 14.2 4 Oeste 12 Sudoeste 0 938.8 0.8 69
2019-06-07 00:00:00 15.2 6 Sudoeste 11 Sudoeste 0 938.9 1.2 66
2019-06-06 23:00:00 16.2 9 Sudoeste 12 Sudoeste 0 938.7 1.2 57
2019-06-06 22:00:00 18.6 3 Este 17 Sudeste 0 938 0.5 48
2019-06-06 21:00:00 20.3 9 Sur 27 Sudeste 0 937.7 -0.4 39
2019-06-06 20:00:00 22.5 14 Sur 28 Sur 0 937.5 -1.1 37
2019-06-06 19:00:00 24.1 13 Sudeste 27 Sudeste 0 937.5 -1.8 31
2019-06-06 18:00:00 24.4 10 Sudeste 30 Sur 0 938.1 -1.6 31
2019-06-06 17:00:00 25.3 12 Sudeste 36 Sudeste 0 938.6 -1.5 26
2019-06-06 16:00:00 25.2 14 Sur 27 Sudeste 0 939.3 -1.2 26
2019-06-06 15:00:00 25.4 12 Sur 31 Sudeste 0 939.7 -1.3 22
2019-06-06 14:00:00 25 14 Sur 33 Sudeste 0 940.1 -1.1 24
2019-06-06 13:00:00 24 10 Sudeste 26 Sudeste 0 940.5 -0.9 21
2019-06-06 12:00:00 22.6 9 Sudeste 22 Sudeste 0 941 -0.2 20
2019-06-06 11:00:00 21 6 Este 14 Nordeste 0 941.2 0.1 23
2019-06-06 10:00:00 19.1 10 Norte 27 Noroeste 0 941.4 0.3 25
2019-06-06 09:00:00 17.8 13 Norte 24 Noroeste 0 941.2 0.2 27
2019-06-06 08:00:00 15.7 10 Norte 26 Norte 0 941.1 0.2 31
2019-06-06 07:00:00 10.2 3 Sudoeste 8 Sudeste 0 941.1 0.2 48
2019-06-06 06:00:00 10.7 3 Sur 8 Sudeste 0 941 -0.2 46
2019-06-06 05:00:00 10.8 4 Sur 10 Sudeste 0 940.9 -0.4 44
2019-06-06 04:00:00 11.2 4 Este 11 Este 0 940.9 -0.3 43
2019-06-06 03:00:00 11.1 2 Sur 9 Sudoeste 0 941.2 0.3 45
2019-06-06 02:00:00 11.7 3 Oeste 10 Oeste 0 941.3 1 43
2019-06-06 01:00:00 14.2 8 Oeste 13 Oeste 0 941.2 1.5 33
2019-06-06 00:00:00 14.9 5 Oeste 9 Este 0 940.9 1.5 31
2019-06-05 23:00:00 18.3 4 Oeste 16 Noroeste 0 940.3 1.4 24
2019-06-05 22:00:00 19.3 3 Sudoeste 16 Oeste 0 939.7 1 21
2019-06-05 21:00:00 20.6 8 Oeste 30 Oeste 0 939.4 0.9 20
2019-06-05 20:00:00 22 10 Oeste 36 Oeste 0 938.9 0.7 20
2019-06-05 19:00:00 22.4 18 Oeste 42 Oeste 0 938.7 0.3 20
2019-06-05 18:00:00 22.6 21 Oeste -- -- 0 938.5 0.1 19
2019-06-05 17:00:00 23.4 22 Oeste 50 Oeste 0 938.2 -0.5 18
2019-06-05 16:00:00 22.9 29 Oeste 53 Oeste 0 938.4 0.3 20
2019-06-05 15:00:00 22.6 21 Oeste 55 Oeste 0 938.4 0.7 22
2019-06-05 14:00:00 22.1 27 Oeste 57 Oeste 0 938.7 1.6 19
2019-06-05 13:00:00 21.2 23 Oeste 51 Oeste 0 938.1 1.2 20
2019-06-05 12:00:00 20.8 32 Oeste 51 Oeste 0 937.7 1.5 21
2019-06-05 11:00:00 20.9 23 Oeste -- -- 0.2 937.1 1.7 34
2019-06-05 10:00:00 20.4 25 Oeste 41 Oeste 0 936.9 1.9 39
2019-06-05 09:00:00 19 15 Oeste 37 Oeste 0 936.2 1.3 53
2019-06-05 08:00:00 19.1 15 Oeste 27 Noroeste 0 935.4 0.4 54
2019-06-05 07:00:00 18.9 10 Noroeste 23 Noroeste 0 935 -0.3 54
2019-06-05 06:00:00 14.7 4 Sudoeste 9 Oeste 0 934.9 -0.8 67
2019-06-05 05:00:00 14.1 2 Sudeste 13 Oeste 0 935 -1.1 67
2019-06-05 04:00:00 15.2 12 Oeste 14 Oeste 0 935.3 -1.1 65
2019-06-05 03:00:00 14.9 3 Sudoeste 8 Sudeste 0 935.7 -0.8 64
2019-06-05 02:00:00 16.2 5 Sudoeste 13 Oeste 0 936.1 -0.4 59
2019-06-05 01:00:00 17 4 Oeste 13 Oeste 0 936.4 0.5 58
2019-06-05 00:00:00 17.5 6 Sudoeste 11 Oeste 0 936.5 0.5 59
2019-06-04 23:00:00 20.1 3 Noroeste 8 Sudeste 0 936.5 0.5 51
2019-06-04 22:00:00 22.3 5 Sudoeste 15 Sur 0 935.9 -0.2 43
2019-06-04 21:00:00 24.4 12 Sudoeste 22 Sudoeste 0 936 -0.5 39
2019-06-04 20:00:00 28 12 Sur 27 Sur 0 936 -1.1 26
2019-06-04 19:00:00 29.3 15 Sur 35 Sur 0 936.1 -1.6 26
2019-06-04 18:00:00 30 18 Sur 32 Sudeste 0 936.5 -2 25
2019-06-04 17:00:00 31.5 15 Sur 30 Sudeste 0 937.1 -2.1 19
2019-06-04 16:00:00 31.8 13 Sur 26 Sur 0 937.7 -2.1 14
2019-06-04 15:00:00 31.6 15 Sudoeste 29 Sudoeste 0 938.5 -1.7 13
2019-06-04 14:00:00 30.8 13 Sur 27 Sur 0 939.2 -1.4 14
2019-06-04 13:00:00 30.1 12 Sudeste 27 Sudeste 0 939.8 -1.1 19
2019-06-04 12:00:00 28.9 8 Este 15 Este 0 940.2 -0.6 20
2019-06-04 11:00:00 27.3 4 Este 9 Sudeste 0 940.6 0 25
2019-06-04 10:00:00 23.8 2 Sudeste 9 Nordeste 0 940.9 0.3 33
2019-06-04 09:00:00 20.5 4 Nordeste 7 Nordeste 0 940.8 0.3 42
2019-06-04 08:00:00 14 0 Calma 11 Oeste 0 940.6 0 62
2019-06-04 07:00:00 12.6 5 Oeste 10 Oeste 0 940.6 -0.6 65
2019-06-04 06:00:00 12.3 2 Sudoeste 8 Sudoeste 0 940.5 -1.2 66
2019-06-04 05:00:00 12.6 4 Sudoeste 7 Oeste 0 940.6 -1.9 67
2019-06-04 04:00:00 13 6 Oeste 8 Sudoeste 0 941.2 -1.8 67
2019-06-04 03:00:00 13.8 5 Oeste 8 Oeste 0 941.7 -1.6 61
2019-06-04 02:00:00 16.4 2 Oeste 12 Sudoeste 0 942.5 -0.8 53
2019-06-04 01:00:00 17.1 7 Sudoeste 11 Sudoeste 0 943 0.2 50
2019-06-04 00:00:00 17.7 4 Norte 9 Sudoeste 0 943.3 0.7 47
2019-06-03 23:00:00 20.1 3 Norte 10 Sudoeste 0 943.3 0.9 38
2019-06-03 22:00:00 22.8 5 Sudoeste 13 Sur 0 942.8 0.4 30
2019-06-03 21:00:00 25.1 12 Sudoeste 21 Sur 0 942.6 -0.2 27
2019-06-03 20:00:00 28.1 11 Sudoeste 22 Sur 0 942.4 -0.6 24
2019-06-03 19:00:00 29.5 13 Sur 27 Sur 0 942.4 -1.2 22
2019-06-03 18:00:00 30.9 15 Sur 26 Sur 0 942.8 -1.4 19
2019-06-03 17:00:00 31.2 12 Sudoeste 26 Sur 0 943 -1.9 14
2019-06-03 16:00:00 30.8 13 Sur 23 Sudoeste 0 943.6 -1.8 14
2019-06-03 15:00:00 30.4 13 Sur 24 Sudoeste 0 944.2 -1.4 15
2019-06-03 14:00:00 28.9 12 Sur 24 Sur 0 944.9 -0.7 17
2019-06-03 13:00:00 27.4 13 Sur 21 Sur 0 945.4 -0.2 18
2019-06-03 12:00:00 25.8 12 Sur 20 Sur 0 945.6 0.1 20
2019-06-03 11:00:00 23.6 8 Sur 15 Sur 0 945.6 0.3 24
2019-06-03 10:00:00 21.5 3 Este 7 Este 0 945.6 0.4 28
2019-06-03 09:00:00 17.4 3 Este 9 Oeste 0 945.5 0.6 41
2019-06-03 08:00:00 13.5 7 Sudoeste 11 Oeste 0 945.3 0.3 52
2019-06-03 07:00:00 9.6 5 Oeste 6 Sudoeste 0 945.2 0 66
2019-06-03 06:00:00 11.4 2 Sudoeste 8 Sudoeste 0 944.9 -0.8 57
2019-06-03 05:00:00 11.6 3 Oeste 9 Oeste 0 945 -1 58
2019-06-03 04:00:00 12.5 5 Noroeste 12 Sudoeste 0 945.2 -1.1 54
2019-06-03 03:00:00 13.6 4 Sudoeste 9 Oeste 0 945.7 -0.7 50
2019-06-03 02:00:00 14.5 8 Oeste 13 Oeste 0 946 -0.1 50
2019-06-03 01:00:00 14.7 8 Oeste 11 Oeste 0 946.3 0.8 55
2019-06-03 00:00:00 15.8 5 Oeste 11 Oeste 0 946.4 1.2 51
2019-06-02 23:00:00 17.6 4 Sudoeste 9 Oeste 0 946.1 1.3 45
2019-06-02 22:00:00 20.6 7 Sudoeste 15 Oeste 0 945.5 0.9 33
2019-06-02 21:00:00 23.4 10 Sudoeste 20 Sudoeste 0 945.2 0.3 27
2019-06-02 20:00:00 26.3 11 Sur 24 Sur 0 944.8 -0.2 21
2019-06-02 19:00:00 27.9 14 Sur 27 Sur 0 944.6 -0.9 19
2019-06-02 18:00:00 28.7 14 Sur 28 Sudeste 0 944.9 -1.1 16
2019-06-02 17:00:00 29.8 9 Sudoeste 18 Sudeste 0 945 -1.7 16
2019-06-02 16:00:00 29.2 7 Noroeste 20 Sudeste 0 945.5 -1.7 15
2019-06-02 15:00:00 28.3 8 Sudeste 15 Sur 0 946 -1.3 16
2019-06-02 14:00:00 26.9 6 Sudoeste 19 Sudoeste 0 946.7 -0.6 17
2019-06-02 13:00:00 25.3 9 Sudeste 19 Sudeste 0 947.2 -0.2 20
2019-06-02 12:00:00 23.8 9 Sur 19 Sur 0 947.3 0.1 22
2019-06-02 11:00:00 22.5 8 Sur 14 Sur 0 947.3 0 27
2019-06-02 10:00:00 19.9 5 Nordeste 8 Nordeste 0 947.4 0.4 31
2019-06-02 09:00:00 16.6 3 Sudeste 6 Sudeste 0 947.2 0.2 39
2019-06-02 08:00:00 11.5 2 Este 8 Oeste 0 947.3 0.1 59
2019-06-02 07:00:00 8.7 0 Calma 8 Sudoeste 0 947 -0.5 66
2019-06-02 06:00:00 9.7 0 Calma 7 Sudoeste 0 947 -0.7 61
2019-06-02 05:00:00 10.5 5 Oeste 10 Oeste 0 947.2 -0.9 58
2019-06-02 04:00:00 10.7 4 Oeste 12 Oeste 0 947.5 -0.6 60
2019-06-02 03:00:00 12.6 7 Oeste 12 Oeste 0 947.7 -0.5 54
2019-06-02 02:00:00 13.7 9 Oeste 13 Oeste 0 948.1 0.3 52
2019-06-02 01:00:00 13.8 8 Oeste 13 Oeste 0 948.1 0.9 54
2019-06-02 00:00:00 15 10 Oeste 12 Oeste 0 948.2 1.4 49
2019-06-01 23:00:00 17.1 7 Sudoeste 15 Sudoeste 0 947.8 1.3 38
2019-06-01 22:00:00 19.2 8 Sudoeste 16 Sudoeste 0 947.2 0.7 32
2019-06-01 21:00:00 21.8 11 Sudoeste 17 Sur 0 946.8 0.2 28
2019-06-01 20:00:00 25.1 9 Sudeste 17 Sur 0 946.5 -0.3 24
2019-06-01 19:00:00 26.1 12 Sur 28 Sudeste 0 946.5 -0.9 23
2019-06-01 18:00:00 27.8 8 Sudeste 25 Sur 0 946.6 -1.4 20
2019-06-01 17:00:00 28.4 7 Sudoeste 21 Sudeste 0 946.8 -1.7 18
2019-06-01 16:00:00 27.9 8 Sur 20 Sudoeste 0 947.4 -1.6 16
2019-06-01 15:00:00 27.2 8 Sudeste 21 Sudeste 0 948 -1.3 17
2019-06-01 14:00:00 25.9 8 Sudoeste 16 Sur 0 948.5 -0.8 21
2019-06-01 13:00:00 24.5 6 Sur 16 Sur 0 949 -0.5 22
2019-06-01 12:00:00 23.2 6 Sudeste 17 Sur 0 949.3 -0.2 26
2019-06-01 11:00:00 21.1 4 Noroeste 9 Nordeste 0 949.3 0.1 42
2019-06-01 10:00:00 19.2 3 Norte 8 Nordeste 0 949.5 0.5 47
2019-06-01 09:00:00 16 2 Sudeste 5 Este 0 949.5 0.6 60
2019-06-01 08:00:00 11 3 Sudoeste 6 Sudoeste 0 949.2 0.2 83
2019-06-01 07:00:00 8.5 3 Oeste 8 Oeste 0 949 -0.2 84
2019-06-01 06:00:00 9.7 4 Oeste 8 Oeste 0 948.9 -0.6 81
2019-06-01 05:00:00 10.4 3 Oeste 9 Oeste 0 949 -0.7 78
2019-06-01 04:00:00 11.2 5 Oeste 9 Oeste 0 949.2 -0.9 77
2019-06-01 03:00:00 12.2 6 Oeste 13 Oeste 0 949.5 -0.4 73
2019-06-01 02:00:00 13.9 10 Oeste 15 Oeste 0 949.7 -0.1 65
2019-06-01 01:00:00 14.1 3 Sudoeste 10 Oeste 0 950.1 1 64
2019-06-01 00:00:00 15.9 9 Oeste 13 Oeste 0 949.9 1.3 58
2019-05-31 23:00:00 17.3 8 Oeste 15 Sudoeste 0 949.8 1.3 51
2019-05-31 22:00:00 19.1 12 Oeste 19 Oeste 0 949.1 0.6 45
2019-05-31 21:00:00 21.5 7 Sudoeste 20 Sur 0 948.6 -0.1 41
2019-05-31 20:00:00 24.5 11 Sudoeste 20 Sudeste 0 948.5 -0.4 34
2019-05-31 19:00:00 25.3 11 Sur 24 Sudeste 0 948.5 -1 32
2019-05-31 18:00:00 26.1 10 Sur 23 Sudeste 0 948.7 -1.2 29
2019-05-31 17:00:00 26.9 8 Sur 36 Sur 0 948.9 -1.4 26
2019-05-31 16:00:00 26.2 7 Sudeste 28 Sudeste 0 949.5 -1.2 26
2019-05-31 15:00:00 25.4 10 Sudeste 21 Este 0 949.9 -1.1 25
2019-05-31 14:00:00 25.2 9 Sur 21 Sudeste 0 950.3 -0.7 26
2019-05-31 13:00:00 24.2 7 Sudoeste 18 Sudeste 0 950.7 -0.3 28
2019-05-31 12:00:00 22.9 8 Sudeste 20 Sur 0 951 0 31
2019-05-31 11:00:00 20.8 8 Sur 14 Sur 0 951 0.1 36
2019-05-31 10:00:00 19 3 Este 8 Sur 0 951 0.4 44
2019-05-31 09:00:00 15.4 0 Calma 4 Nordeste 0 951 0.5 63
2019-05-31 08:00:00 10.6 0 Calma 4 Sudoeste 0 950.9 0.4 86
2019-05-31 07:00:00 7.9 3 Oeste 6 Oeste 0 950.6 -0.2 87
2019-05-31 06:00:00 8.5 4 Oeste 6 Sudoeste 0 950.5 -0.8 85
2019-05-31 05:00:00 9.5 6 Oeste 10 Sudoeste 0 950.5 -1 84
2019-05-31 04:00:00 10.1 4 Sudoeste 9 Oeste 0 950.8 -0.8 80
2019-05-31 03:00:00 11.2 3 Oeste 12 Sudoeste 0 951.3 -0.4 76
2019-05-31 02:00:00 12.2 8 Oeste 10 Oeste 0 951.5 0.2 74
2019-05-31 01:00:00 12.6 3 Sudoeste 7 Oeste 0 951.6 1 71
2019-05-31 00:00:00 13.5 2 Este 5 Sudeste 0 951.7 1.8 66
2019-05-30 23:00:00 15.7 4 Sur 17 Oeste 0 951.3 1.8 58
2019-05-30 22:00:00 17.3 7 Sudoeste 18 Sudoeste 0 950.6 1 53
2019-05-30 21:00:00 19.8 10 Sudoeste 19 Sudeste 0 949.9 0.1 45
2019-05-30 20:00:00 22.5 12 Sur 24 Sur 0 949.5 -0.6 37
2019-05-30 19:00:00 24.2 10 Sudeste 25 Sudeste 0 949.6 -0.6 32
2019-05-30 18:00:00 24.9 12 Sur 28 Sudeste 0 949.8 -0.7 31
2019-05-30 17:00:00 25.1 10 Este 26 Sudeste 0 950.1 -0.8 27
2019-05-30 16:00:00 25.5 5 Sudeste 18 Este 0 950.2 -1.1 25
2019-05-30 15:00:00 24.2 8 Sudeste 19 Sur 0 950.5 -1.1 25
2019-05-30 14:00:00 23.6 9 Este 19 Este 0 950.9 -0.6 25
2019-05-30 13:00:00 22.3 9 Sudoeste 18 Oeste 0 951.3 -0.1 29
2019-05-30 12:00:00 20.7 8 Sudeste 19 Este 0 951.6 0.3 32
2019-05-30 11:00:00 19 8 Sur 16 Sudoeste 0 951.5 0.6 32
2019-05-30 10:00:00 17.5 5 Este 9 Este 0 951.4 1 48
2019-05-30 09:00:00 14 3 Sudeste 6 Sudeste 0 951.3 1.1 61
2019-05-30 08:00:00 9.3 0 Calma 8 Sudoeste 0 950.9 0.7 81
2019-05-30 07:00:00 7.6 4 Oeste 6 Oeste 0 950.4 0.2 84
2019-05-30 06:00:00 7.8 0 Calma 4 Oeste 0 950.2 -0.1 81
2019-05-30 05:00:00 8.5 3 Oeste 10 Sudoeste 0 950.2 -0.3 80
2019-05-30 04:00:00 9.1 9 Oeste 11 Oeste 0 950.2 -0.1 79
2019-05-30 03:00:00 10.2 6 Oeste 10 Sudoeste 0 950.3 0.3 73
2019-05-30 02:00:00 10.6 5 Oeste 8 Oeste 0 950.5 1.2 71
2019-05-30 01:00:00 12 5 Oeste 11 Oeste 0 950.3 2.1 66
2019-05-30 00:00:00 12.5 4 Oeste 8 Oeste 0 950 2.6 64
2019-05-29 23:00:00 13.7 5 Sudoeste 10 Oeste 0 949.3 2.8 58
2019-05-29 22:00:00 15.9 6 Sudoeste 10 Sur 0 948.2 2.2 52
2019-05-29 21:00:00 18.6 8 Sudeste 17 Sur 0 947.4 1.6 42
2019-05-29 20:00:00 21.3 10 Sur 21 Sudeste 0 946.5 0.6 35
2019-05-29 19:00:00 22.6 9 Sur 30 Sudeste 0 946 0 32
2019-05-29 18:00:00 24.1 10 Sur 22 Este 0 945.8 -0.5 29
2019-05-29 17:00:00 24.3 9 Este 23 Nordeste 0 945.9 -0.7 20
2019-05-29 16:00:00 24.2 12 Nordeste 22 Nordeste 0 946 -0.8 18
2019-05-29 15:00:00 23.6 15 Nordeste 32 Noroeste 0 946.3 -0.7 18
2019-05-29 14:00:00 22.9 12 Sudoeste 24 Oeste 0 946.6 -0.5 20
2019-05-29 13:00:00 21.4 7 Sudeste 24 Sudoeste 0 946.8 -0.1 28
2019-05-29 12:00:00 20 7 Noroeste 22 Sudoeste 0 947 0.1 31
2019-05-29 11:00:00 18 10 Nordeste 21 Norte 0 947.1 0.7 40
2019-05-29 10:00:00 17 5 Este 14 Nordeste 0 946.9 1.2 46
2019-05-29 09:00:00 15.4 11 Norte 16 Norte 0 946.9 1.4 49
2019-05-29 08:00:00 11.9 3 Sudoeste 6 Oeste 0 946.4 1.2 77
2019-05-29 07:00:00 9.8 5 Sudoeste 7 Sudoeste 0 945.7 0.8 84
2019-05-29 06:00:00 9.8 3 Sur 7 Sudoeste 0 945.5 0.7 82
2019-05-29 05:00:00 10.7 0 Calma 8 Norte 0 945.2 0.3 81
2019-05-29 04:00:00 11.8 6 Oeste 9 Sudoeste 0 944.9 0.3 78
2019-05-29 03:00:00 12.7 4 Sudoeste 12 Nordeste 0 944.8 0.4 75
2019-05-29 02:00:00 13.9 6 Nordeste 10 Nordeste 0 944.9 1.2 70
2019-05-29 01:00:00 14.8 5 Nordeste 13 Nordeste 0 944.6 1.9 66
2019-05-29 00:00:00 15.7 12 Nordeste 20 Nordeste 0 944.4 2.9 64
2019-05-28 23:00:00 17 11 Nordeste 25 Nordeste 0 943.7 3.3 60
2019-05-28 22:00:00 18.8 17 Nordeste 24 Nordeste 0 942.7 3.3 55
2019-05-28 21:00:00 21.6 12 Este 26 Sudeste 0 941.5 2.3 50
2019-05-28 20:00:00 24.4 15 Este 39 Nordeste 0 940.4 1.1 41
2019-05-28 19:00:00 29 6 Oeste 38 Oeste 0 939.4 -0.2 19
2019-05-28 18:00:00 29.5 13 Oeste 38 Oeste 0 939.2 -0.6 21
2019-05-28 17:00:00 28.9 15 Oeste -- -- 0 939.3 -1.1 22
2019-05-28 16:00:00 28.6 -- -- -- -- 0 939.6 -1.2 24
2019-05-28 15:00:00 27.5 8 Sur 23 Sudoeste 0 939.8 -1.1 26
2019-05-28 14:00:00 25.8 3 Oeste 15 Sur 0 940.4 -0.5 31
2019-05-28 13:00:00 25 9 Sur 16 Sudoeste 0 940.8 -0.1 32
2019-05-28 12:00:00 23.8 5 Oeste 14 Sudoeste 0 940.9 0.2 35
2019-05-28 11:00:00 21.7 6 Nordeste 11 Este 0 940.9 0.7 41
2019-05-28 10:00:00 20.1 5 Nordeste 17 Nordeste 0 940.9 1.3 45
2019-05-28 09:00:00 18.4 6 Nordeste 15 Nordeste 0 940.7 0.8 51
2019-05-28 08:00:00 13.9 2 Este 10 Sudoeste 0 940.2 0.7 76
2019-05-28 07:00:00 12.8 7 Oeste 9 Oeste 0 939.6 0 78
2019-05-28 06:00:00 13.5 4 Sudoeste 9 Sudoeste 0 939.9 0.4 78
2019-05-28 05:00:00 13.8 3 Sur 8 Sudoeste 0 939.5 -0.2 73
2019-05-28 04:00:00 13.8 2 Sudeste 9 Nordeste 0 939.6 -0.1 72
2019-05-28 03:00:00 15.5 6 Nordeste 15 Nordeste 0 939.5 -0.1 63
2019-05-28 02:00:00 16.1 6 Nordeste 15 Nordeste 0 939.7 0.4 65
2019-05-28 01:00:00 17.1 8 Nordeste 13 Nordeste 0 939.7 1.1 65
2019-05-28 00:00:00 16.8 2 Nordeste 7 Este 0 939.6 1.7 67
2019-05-27 23:00:00 19.1 0 Calma 8 Este 0 939.3 2 58
2019-05-27 22:00:00 20.6 6 Sudeste 24 Sudeste 0 938.6 1.3 52
2019-05-27 21:00:00 24.1 10 Nordeste 36 Oeste 0 937.9 0.3 38
2019-05-27 20:00:00 28.4 15 Oeste 30 Oeste 0 937.3 -0.6 20
2019-05-27 19:00:00 27.5 10 Oeste 33 Oeste 0 937.3 -1.1 22
2019-05-27 18:00:00 28.5 15 Oeste 36 Oeste 0 937.6 -1.5 19
2019-05-27 17:00:00 29.1 9 Norte 35 Norte 0 937.9 -1.7 18
2019-05-27 16:00:00 28.4 6 Sudoeste 24 Sudoeste 0 938.4 -1.6 20
2019-05-27 15:00:00 26.5 6 Oeste 32 Nordeste 0 939.1 -1 23
2019-05-27 14:00:00 26.3 14 Nordeste 27 Nordeste 0 939.6 -1.2 26
2019-05-27 13:00:00 25 6 Sudoeste 25 Oeste 0 940 -0.9 30
2019-05-27 12:00:00 23.9 10 Nordeste 26 Norte 0 940.1 -0.8 31
2019-05-27 11:00:00 21.9 5 Noroeste 12 Sudoeste 0 940.8 -0.3 40
2019-05-27 10:00:00 19.9 4 Este 8 Sudeste 0 940.9 -0.1 53
2019-05-27 09:00:00 15.6 0 Calma 5 Sudeste 0 940.9 0 76
2019-05-27 08:00:00 11.1 0 Calma 6 Nordeste 0 941.1 -0.1 91
2019-05-27 07:00:00 9.3 3 Sudeste 5 Nordeste 0 941 -0.7 91
2019-05-27 06:00:00 9.7 0 Calma 6 Sudoeste 0 940.9 -1.1 90
2019-05-27 05:00:00 10.1 5 Sudoeste 9 Sudoeste 0 941.2 -1.2 89
2019-05-27 04:00:00 11 6 Oeste 10 Oeste 0 941.7 -1 88
2019-05-27 03:00:00 11.7 5 Oeste 10 Oeste 0 942 -1.1 87
2019-05-27 02:00:00 12.2 6 Oeste 11 Oeste 0 942.4 -0.4 84
2019-05-27 01:00:00 13.2 4 Oeste 9 Oeste 0 942.7 0.5 81
2019-05-27 00:00:00 13.6 4 Oeste 6 Oeste 0 943.1 1.3 78